Data for 12/25/2012

Time Sea-Level Adjusted Pressure Absolute Pressure Temperature Relative Humidity Dew Point Precipitation   
(mb) (inHg) (mb) (inHg) (C) (F) (%) (C) (F) (mm) (in)
11:46 1020 30.12 849 25.07 -14.2 6.5 81 -16.8 1.8 0 0
11:47 1020 30.12 849 25.07 -14 6.9 81 -16.6 2.1 0 0
11:48 1020 30.12 849 25.07 -13.8 7.1 80 -16.5 2.3 0 0
11:49 1020 30.12 849 25.07 -13.7 7.3 80 -16.4 2.4 0 0
11:50 1020 30.12 849 25.07 -13.7 7.4 80 -16.5 2.3 0 0
11:51 1020 30.12 849 25.07 -13.7 7.3 79 -16.6 2.1 0 0
11:52 1020 30.12 849 25.07 -13.8 7.3 80 -16.5 2.3 0 0
11:53 1020 30.12 849 25.07 -13.7 7.4 80 -16.4 2.5 0 0
11:54 1020 30.12 849 25.07 -13.6 7.5 80 -16.4 2.6 0 0
11:55 1020 30.12 849 25.07 -13.5 7.7 79 -16.4 2.5 0 0
11:56 1020 30.12 849 25.07 -13.4 7.8 79 -16.3 2.7 0 0
11:57 1020 30.12 849 25.07 -13.3 8 79 -16.2 2.8 0 0
11:58 1020 30.12 849 25.07 -13.2 8.2 77 -16.4 2.4 0 0
11:59 1020 30.12 849 25.07 -13.3 8.1 77 -16.6 2.2 0 0
12:00 1020 30.12 849 25.07 -13.3 8.1 78 -16.4 2.5 0 0
12:01 1020 30.12 849 25.07 -13.2 8.2 79 -16.2 2.9 0 0
12:02 1020 30.12 849 25.07 -13.1 8.5 77 -16.2 2.8 0 0
12:03 1020 30.12 849 25.07 -13 8.6 77 -16.2 2.8 0 0
12:04 1020 30.12 849 25.07 -12.9 8.7 77 -16.2 2.9 0 0
12:05 1020 30.12 849 25.07 -12.8 9 76 -16.2 2.9 0 0
12:06 1020 30.12 849 25.07 -12.7 9.1 75 -16.3 2.7 0 0
12:07 1020 30.12 849 25.07 -12.8 9 75 -16.4 2.5 0 0
12:08 1020 30.12 849 25.07 -12.8 9 75 -16.4 2.5 0 0
12:09 1020 30.12 849 25.07 -12.8 9 75 -16.4 2.6 0 0
12:10 1020 30.12 849 25.07 -12.8 9 75 -16.4 2.6 0 0
12:11 1020 30.12 849 25.07 -12.7 9.1 75 -16.3 2.7 0 0
12:12 1020 30.12 849 25.07 -12.7 9.2 75 -16.2 2.8 0 0
12:13 1020 30.12 849 25.07 -12.6 9.3 75 -16.2 2.9 0 0
12:14 1020 30.12 849 25.07 -12.6 9.4 75 -16.2 2.9 0 0
12:15 1020 30.12 849 25.07 -12.5 9.6 74 -16.2 2.8 0 0
12:16 1020 30.12 849 25.07 -12.4 9.6 73 -16.3 2.7 0 0
12:17 1020 30.12 849 25.07 -12.5 9.5 73 -16.4 2.5 0 0
12:18 1020 30.12 849 25.07 -12.6 9.4 73 -16.4 2.5 0 0
12:19 1020 30.12 849 25.07 -12.6 9.3 74 -16.4 2.5 0 0
12:20 1020 30.12 849 25.07 -12.7 9.2 74 -16.5 2.4 0 0
12:21 1019 30.09 849 25.07 -12.7 9.1 74 -16.4 2.4 0 0
12:22 1019 30.09 849 25.07 -12.8 9 75 -16.3 2.6 0 0
12:23 1019 30.09 849 25.07 -12.7 9.2 75 -16.2 2.8 0 0
12:24 1019 30.09 849 25.07 -12.6 9.4 75 -16.2 2.9 .2 0.008
12:25 1019 30.09 849 25.07 -12.4 9.6 75 -15.9 3.3 0 0
12:26 1019 30.09 849 25.07 -12.2 10 76 -15.7 3.8 0 0
12:27 1019 30.09 849 25.07 -12 10.4 74 -15.7 3.7 0 0
12:28 1019 30.09 849 25.07 -11.8 10.7 72 -16 3.3 .2 0.008
12:29 1019 30.09 849 25.07 -11.8 10.8 72 -15.8 3.5 0 0
12:30 1019 30.09 848 25.04 -11.8 10.8 73 -15.6 3.8 0 0
12:31 1019 30.09 848 25.04 -11.7 11 76 -15.1 4.9 0 0
12:32 1019 30.09 848 25.04 -11.3 11.6 77 -14.7 5.6 0 0
12:33 1019 30.09 848 25.04 -11 12.2 76 -14.5 5.9 .2 0.008
12:34 1019 30.09 848 25.04 -10.7 12.7 71 -15 5 0 0
12:35 1019 30.09 848 25.04 -10.6 12.9 70 -15.1 4.9 0 0
12:36 1019 30.09 848 25.04 -10.6 12.9 68 -15.4 4.3 0 0
12:37 1019 30.09 848 25.04 -10.7 12.7 67 -15.7 3.7 0 0
12:38 1019 30.09 848 25.04 -11 12.3 67 -15.9 3.3 0 0
12:39 1019 30.09 848 25.04 -11.3 11.6 68 -16.1 3.1 0 0
12:40 1019 30.09 848 25.04 -11.6 11.1 69 -16.2 2.8 .2 0.008
12:41 1019 30.09 848 25.04 -11.8 10.8 69 -16.4 2.5 0 0
12:42 1019 30.09 848 25.04 -12 10.5 69 -16.6 2.2 0 0
12:43 1019 30.09 848 25.04 -12.2 10 69 -16.7 1.9 0 0
12:44 1019 30.09 848 25.04 -12.5 9.5 71 -16.8 1.8 0 0
12:45 1019 30.09 848 25.04 -12.7 9.2 71 -16.8 1.7 0 0
12:46 1019 30.09 848 25.04 -12.8 8.9 71 -17 1.4 0 0
12:47 1019 30.09 848 25.04 -13 8.7 72 -17 1.3 0 0
12:48 1019 30.09 848 25.04 -13.1 8.4 73 -17.1 1.3 0 0
12:49 1019 30.09 848 25.04 -13.2 8.2 73 -17.1 1.2 0 0
12:50 1019 30.09 848 25.04 -13.3 8 73 -17.1 1.2 0 0
12:51 1019 30.09 848 25.04 -13.4 8 74 -17.1 1.2 0 0
12:52 1019 30.09 848 25.04 -13.4 7.9 74 -17.1 1.1 0 0
12:53 1019 30.09 848 25.04 -13.4 7.9 74 -17.2 1.1 0 0
12:54 1019 30.09 848 25.04 -13.5 7.8 74 -17.2 1.1 0 0
12:55 1019 30.09 848 25.04 -13.5 7.8 74 -17.1 1.3 0 0
12:56 1019 30.09 848 25.04 -13.4 7.9 74 -17 1.4 0 0
12:57 1019 30.09 848 25.04 -13.3 8.1 74 -17 1.4 0 0
12:58 1019 30.09 848 25.04 -13.2 8.2 74 -16.9 1.5 0 0
12:59 1019 30.09 848 25.04 -13.1 8.5 74 -16.8 1.8 0 0
13:00 1019 30.09 848 25.04 -13 8.7 74 -16.8 1.8 0 0
13:01 1019 30.09 848 25.04 -12.9 8.7 73 -16.9 1.6 0 0
13:02 1019 30.09 848 25.04 -12.9 8.7 73 -16.8 1.7 0 0
13:03 1019 30.09 848 25.04 -13 8.7 73 -16.8 1.7 0 0
13:04 1019 30.09 848 25.04 -12.9 8.8 73 -16.8 1.8 0 0
13:05 1019 30.09 848 25.04 -12.9 8.8 73 -16.8 1.8 0 0
13:06 1019 30.09 848 25.04 -12.9 8.8 73 -16.8 1.7 0 0
13:07 1019 30.09 848 25.04 -12.9 8.8 72 -16.9 1.6 0 0
13:08 1019 30.09 848 25.04 -12.9 8.7 73 -16.8 1.7 0 0
13:09 1019 30.09 848 25.04 -12.9 8.8 73 -16.8 1.7 0 0
13:10 1019 30.09 848 25.04 -12.8 9 73 -16.7 1.9 0 0
13:11 1019 30.09 848 25.04 -12.7 9.1 73 -16.7 2 0 0
13:12 1019 30.09 848 25.04 -12.5 9.4 73 -16.4 2.5 .2 0.008
13:13 1019 30.09 848 25.04 -12.3 9.9 72 -16.3 2.7 0 0
13:14 1019 30.09 848 25.04 -12.1 10.2 70 -16.6 2.2 0 0
13:15 1019 30.09 848 25.04 -12 10.4 69 -16.6 2.1 0 0
13:16 1019 30.09 848 25.04 -12.2 10.1 69 -16.7 2 0 0
13:17 1019 30.09 848 25.04 -12.2 10.1 70 -16.6 2.2 0 0
13:18 1019 30.09 848 25.04 -12.1 10.2 70 -16.5 2.4 0 0
13:19 1019 30.09 848 25.04 -12 10.3 70 -16.5 2.4 0 0
13:20 1019 30.09 848 25.04 -11.9 10.6 70 -16.4 2.5 0 0
13:21 1019 30.09 848 25.04 -11.8 10.7 70 -16.2 2.8 0 0
13:22 1019 30.09 848 25.04 -11.6 11.1 70 -16 3.2 0 0
13:23 1019 30.09 848 25.04 -11.5 11.4 70 -15.9 3.3 0 0
13:24 1019 30.09 848 25.04 -11.3 11.7 71 -15.6 4 0 0
13:25 1019 30.09 848 25.04 -11.1 12 72 -15.2 4.7 0 0
13:26 1019 30.09 848 25.04 -10.9 12.4 72 -15.1 4.9 0 0
13:27 1019 30.09 848 25.04 -10.6 12.8 71 -14.9 5.3 0 0
13:28 1019 30.09 848 25.04 -10.3 13.4 72 -14.4 6.1 0 0
13:29 1019 30.09 848 25.04 -9.9 14.3 72 -14 6.9 0 0
13:30 1019 30.09 848 25.04 -9.4 15.1 71 -13.7 7.4 0 0
13:31 1019 30.09 848 25.04 -9.1 15.6 69 -13.8 7.1 0 0
13:32 1019 30.09 848 25.04 -9 15.7 66 -14.3 6.3 0 0
13:33 1019 30.09 848 25.04 -9.1 15.6 64 -14.7 5.5 0 0
13:34 1019 30.09 848 25.04 -9.3 15.3 62 -15.3 4.5 0 0
13:35 1019 30.09 848 25.04 -9.5 14.9 64 -15.2 4.7 0 0
13:36 1019 30.09 848 25.04 -9.5 14.9 67 -14.5 6 0 0
13:37 1019 30.09 848 25.04 -9.1 15.6 67 -14.1 6.6 0 0
13:38 1019 30.09 848 25.04 -8.9 16 64 -14.5 6 0 0
13:39 1019 30.09 848 25.04 -9 15.8 62 -15.1 4.9 0 0
13:40 1019 30.09 848 25.04 -9.4 15 62 -15.5 4.1 0 0
13:41 1019 30.09 848 25.04 -9.9 14.2 62 -15.8 3.6 0 0
13:42 1019 30.09 848 25.04 -10.2 13.6 62 -16.3 2.7 0 0
13:43 1019 30.09 848 25.04 -10.7 12.8 62 -16.7 2 0 0
13:44 1019 30.09 848 25.04 -11.1 12 64 -16.7 1.9 0 0
13:45 1019 30.09 848 25.04 -11.3 11.6 65 -16.6 2 0 0
13:46 1019 30.09 848 25.04 -11.6 11.2 66 -16.8 1.8 0 0
13:47 1019 30.09 848 25.04 -11.8 10.8 65 -17 1.4 0 0
13:48 1018 30.06 848 25.04 -12.1 10.3 66 -17.1 1.1 0 0
13:49 1018 30.06 848 25.04 -12.2 10 67 -17.2 1 0 0
13:50 1018 30.06 848 25.04 -12.3 9.8 68 -17.1 1.2 0 0
13:51 1018 30.06 848 25.04 -12.4 9.7 69 -17 1.4 0 0
13:52 1018 30.06 848 25.04 -12.5 9.6 68 -17.2 1 0 0
13:53 1018 30.06 848 25.04 -12.6 9.4 68 -17.3 0.8 0 0
13:54 1018 30.06 848 25.04 -12.8 9.1 69 -17.3 0.9 0 0
13:55 1018 30.06 848 25.04 -12.7 9.1 71 -16.9 1.6 0 0
13:56 1018 30.06 848 25.04 -12.5 9.5 72 -16.5 2.2 0 0
13:57 1018 30.06 848 25.04 -12.2 10.1 70 -16.6 2.1 0 0
13:58 1018 30.06 847 25.01 -12.1 10.3 68 -16.8 1.7 0 0
13:59 1018 30.06 847 25.01 -12 10.4 67 -16.9 1.6 0 0
14:00 1018 30.06 847 25.01 -12.1 10.3 68 -16.8 1.7 0 0
14:01 1018 30.06 847 25.01 -12 10.5 68 -16.8 1.8 0 0
14:02 1018 30.06 847 25.01 -12 10.5 67 -17 1.5 0 0
14:03 1018 30.06 847 25.01 -12 10.4 66 -17.1 1.3 0 0
14:04 1018 30.06 847 25.01 -12.1 10.3 67 -17 1.3 0 0
14:05 1018 30.06 847 25.01 -12.1 10.3 66 -17.1 1.2 0 0
14:06 1018 30.06 847 25.01 -12.1 10.1 66 -17.2 1 0 0
14:07 1018 30.06 847 25.01 -12.2 10 67 -17.2 1 0 0
14:08 1018 30.06 847 25.01 -12.3 9.9 67 -17.2 1.1 0 0
14:09 1018 30.06 847 25.01 -12.3 10 67 -17.2 1 0 0
14:10 1018 30.06 847 25.01 -12.1 10.2 66 -17.2 1 0 0
14:11 1018 30.06 847 25.01 -12.1 10.2 66 -17.3 0.8 0 0
14:12 1018 30.06 847 25.01 -12.2 10.1 66 -17.4 0.7 0 0
14:13 1018 30.06 847 25.01 -12.2 10 66 -17.4 0.7 0 0
14:14 1018 30.06 847 25.01 -12.3 9.9 66 -17.3 0.8 0 0
14:15 1018 30.06 847 25.01 -12.3 9.8 68 -17.1 1.2 0 0
14:16 1018 30.06 847 25.01 -12.4 9.8 69 -17 1.5 0 0
14:17 1018 30.06 847 25.01 -12.3 9.9 69 -16.9 1.5 0 0
14:18 1018 30.06 847 25.01 -12.3 9.8 68 -17.1 1.2 0 0
14:19 1018 30.06 847 25.01 -12.5 9.5 68 -17.2 1 0 0
14:20 1018 30.06 847 25.01 -12.6 9.3 69 -17.2 1 0 0
14:21 1018 30.06 847 25.01 -12.8 9 70 -17.2 1 0 0
14:22 1018 30.06 847 25.01 -12.9 8.8 70 -17.3 0.8 0 0
14:23 1018 30.06 847 25.01 -13 8.5 70 -17.4 0.6 0 0
14:24 1018 30.06 847 25.01 -13.2 8.3 71 -17.3 0.8 0 0
14:25 1018 30.06 847 25.01 -13.2 8.2 72 -17.3 0.9 0 0
14:26 1018 30.06 847 25.01 -13.3 8.1 72 -17.4 0.7 0 0
14:27 1018 30.06 847 25.01 -13.4 7.9 70 -17.7 0.2 0 0
14:28 1018 30.06 847 25.01 -13.6 7.6 70 -17.9 -0.2 0 0
14:29 1018 30.06 847 25.01 -13.8 7.2 73 -17.7 0.2 0 0
14:30 1018 30.06 847 25.01 -13.8 7.2 74 -17.5 0.5 0 0
14:31 1018 30.06 847 25.01 -13.8 7.2 75 -17.4 0.7 0 0
14:32 1018 30.06 847 25.01 -13.7 7.3 75 -17.3 0.9 0 0
14:33 1018 30.06 847 25.01 -13.6 7.4 73 -17.4 0.6 0 0
14:34 1018 30.06 847 25.01 -13.6 7.5 74 -17.4 0.7 0 0
14:35 1018 30.06 847 25.01 -13.6 7.5 73 -17.5 0.5 0 0
14:36 1018 30.06 847 25.01 -13.6 7.5 74 -17.4 0.7 0 0
14:37 1018 30.06 847 25.01 -13.6 7.5 73 -17.5 0.4 0 0
14:38 1018 30.06 847 25.01 -13.5 7.6 73 -17.4 0.6 0 0
14:39 1018 30.06 847 25.01 -13.4 7.9 73 -17.2 1 0 0
14:40 1018 30.06 847 25.01 -13.2 8.2 74 -17 1.4 0 0
14:41 1018 30.06 847 25.01 -13 8.6 73 -16.9 1.6 0 0
14:42 1018 30.06 847 25.01 -12.7 9.1 71 -17 1.5 0 0
14:43 1018 30.06 847 25.01 -12.6 9.2 68 -17.5 0.5 0 0
14:44 1018 30.06 847 25.01 -12.6 9.3 70 -17 1.4 0 0
14:45 1018 30.06 847 25.01 -12.5 9.5 70 -16.9 1.6 0 0
14:46 1018 30.06 847 25.01 -12.3 9.8 69 -16.9 1.7 0 0
14:47 1018 30.06 847 25.01 -12.3 9.9 68 -17 1.4 0 0
14:48 1018 30.06 847 25.01 -12.4 9.7 69 -17 1.4 0 0
14:49 1018 30.06 847 25.01 -12.5 9.6 70 -16.9 1.6 0 0
14:50 1017 30.03 847 25.01 -12.4 9.7 70 -16.7 1.9 0 0
14:51 1017 30.03 847 25.01 -12.2 10 71 -16.5 2.3 0 0
14:52 1017 30.03 847 25.01 -12.1 10.3 72 -16.1 3 0 0
14:53 1017 30.03 847 25.01 -11.7 10.9 73 -15.7 3.8 0 0
14:54 1017 30.03 847 25.01 -11.3 11.6 70 -15.7 3.7 0 0
14:55 1017 30.03 847 25.01 -11.1 12 65 -16.5 2.2 0 0
14:56 1017 30.03 847 25.01 -11.4 11.5 65 -16.8 1.7 0 0
14:57 1017 30.03 847 25.01 -11.9 10.6 67 -16.8 1.8 0 0
14:58 1017 30.03 847 25.01 -12.3 10 67 -17.1 1.2 0 0
14:59 1017 30.03 847 25.01 -12.6 9.3 69 -17.1 1.2 0 0
15:00 1017 30.03 847 25.01 -12.7 9.1 69 -17.2 1 0 0
15:01 1017 30.03 847 25.01 -12.9 8.8 70 -17.2 1 0 0
15:02 1017 30.03 847 25.01 -13 8.6 72 -17 1.3 0 0
15:03 1017 30.03 847 25.01 -12.9 8.8 72 -16.9 1.5 0 0
15:04 1017 30.03 847 25.01 -12.7 9.1 71 -16.9 1.6 0 0
15:05 1017 30.03 847 25.01 -12.7 9.2 70 -17.1 1.2 0 0
15:06 1017 30.03 847 25.01 -12.6 9.2 69 -17.2 1 0 0
15:07 1017 30.03 847 25.01 -12.7 9.2 68 -17.3 0.8 0 0
15:08 1017 30.03 847 25.01 -12.7 9.2 69 -17.2 1 0 0
15:09 1017 30.03 847 25.01 -12.7 9.2 69 -17.2 1 0 0
15:10 1017 30.03 847 25.01 -12.8 9 69 -17.4 0.7 0 0
15:11 1017 30.03 847 25.01 -12.9 8.9 69 -17.3 0.8 0 0
15:12 1017 30.03 847 25.01 -13 8.6 69 -17.6 0.3 0 0
15:13 1017 30.03 847 25.01 -13.2 8.3 70 -17.6 0.4 0 0
15:14 1017 30.03 847 25.01 -13.2 8.2 71 -17.5 0.5 0 0
15:15 1017 30.03 846 24.98 -13.2 8.2 71 -17.4 0.6 0 0
15:16 1017 30.03 846 24.98 -13.2 8.2 72 -17.2 1 0 0
15:17 1017 30.03 846 24.98 -13.1 8.4 73 -17.1 1.3 0 0
15:18 1017 30.03 846 24.98 -13 8.5 72 -17 1.3 0 0
15:19 1017 30.03 846 24.98 -12.9 8.7 72 -16.9 1.5 0 0
15:20 1017 30.03 846 24.98 -12.9 8.9 72 -16.9 1.5 0 0
15:21 1017 30.03 846 24.98 -12.8 8.9 72 -17 1.5 0 0
15:22 1017 30.03 846 24.98 -12.8 9 72 -16.9 1.7 0 0
15:23 1017 30.03 846 24.98 -12.7 9.1 72 -16.9 1.6 0 0
15:24 1017 30.03 846 24.98 -12.8 9 71 -17 1.4 0 0
15:25 1017 30.03 846 24.98 -12.8 9.1 72 -16.8 1.7 0 0
15:26 1017 30.03 846 24.98 -12.8 9 71 -16.9 1.5 0 0
15:27 1017 30.03 846 24.98 -12.8 8.9 72 -16.8 1.7 0 0
15:28 1017 30.03 846 24.98 -12.8 9 71 -17 1.4 0 0
15:29 1017 30.03 846 24.98 -13 8.7 68 -17.6 0.3 0 0
15:30 1017 30.03 846 24.98 -13.3 8.1 73 -17.2 1.1 0 0
15:31 1017 30.03 846 24.98 -13.4 8 74 -17.1 1.3 0 0
15:32 1017 30.03 846 24.98 -13.3 8 74 -17 1.4 0 0
15:33 1017 30.03 846 24.98 -13.3 8.2 75 -16.8 1.8 0 0
15:34 1017 30.03 846 24.98 -13.2 8.2 73 -17.1 1.2 0 0
15:35 1017 30.03 846 24.98 -13.3 8.2 75 -16.9 1.7 0 0
15:36 1017 30.03 846 24.98 -13.2 8.2 74 -16.9 1.6 0 0
15:37 1017 30.03 846 24.98 -13.3 8 70 -17.6 0.2 0 0
15:38 1017 30.03 846 24.98 -13.5 7.7 73 -17.4 0.7 0 0
15:39 1017 30.03 846 24.98 -13.6 7.5 75 -17.2 1.1 0 0
15:40 1017 30.03 846 24.98 -13.6 7.5 75 -17.2 1 0 0
15:41 1017 30.03 846 24.98 -13.7 7.3 72 -17.8 -0 0 0
15:42 1017 30.03 846 24.98 -14.1 6.7 74 -17.8 -0 0 0
15:43 1017 30.03 846 24.98 -14.2 6.5 75 -17.7 0.2 0 0
15:44 1017 30.03 846 24.98 -14.3 6.3 76 -17.6 0.3 0 0
15:45 1017 30.03 846 24.98 -14.2 6.4 79 -17.2 1.1 0 0
15:46 1017 30.03 846 24.98 -14 6.8 78 -17 1.3 0 0
15:47 1017 30.03 846 24.98 -13.9 7.1 75 -17.4 0.8 0 0
15:48 1017 30.03 846 24.98 -14.1 6.7 75 -17.6 0.4 0 0
15:49 1017 30.03 846 24.98 -14 6.7 79 -17 1.4 0 0
15:50 1017 30.03 846 24.98 -13.9 7.1 77 -17 1.4 0 0
15:51 1017 30.03 846 24.98 -13.8 7.3 73 -17.6 0.3 0 0
15:52 1017 30.03 846 24.98 -14.1 6.7 73 -18 -0.3 0 0
15:53 1017 30.03 846 24.98 -14.4 6.2 76 -17.8 -0 0 0
15:54 1017 30.03 846 24.98 -14.3 6.3 79 -17.2 1.1 0 0
15:55 1017 30.03 846 24.98 -14.1 6.7 76 -17.4 0.6 0 0
15:56 1017 30.03 846 24.98 -14.1 6.6 74 -17.9 -0.2 0 0
15:57 1017 30.03 846 24.98 -14.3 6.2 74 -18 -0.4 0 0
15:58 1017 30.03 846 24.98 -14.5 6 76 -17.8 0 0 0
15:59 1017 30.03 846 24.98 -14.6 5.8 75 -18 -0.4 0 0
16:00 1017 30.03 846 24.98 -14.7 5.5 75 -18.2 -0.8 0 0
16:01 1017 30.03 846 24.98 -14.9 5.2 77 -18.1 -0.6 0 0
16:02 1017 30.03 846 24.98 -14.9 5.2 78 -17.9 -0.3 0 0
16:03 1017 30.03 846 24.98 -14.8 5.3 79 -17.7 0.1 0 0
16:04 1017 30.03 846 24.98 -14.8 5.4 76 -18.1 -0.5 0 0
16:05 1017 30.03 846 24.98 -15 5 76 -18.3 -0.9 0 0
16:06 1017 30.03 846 24.98 -15 4.9 79 -17.9 -0.1 0 0
16:07 1017 30.03 846 24.98 -14.9 5.1 80 -17.7 0.1 0 0
16:08 1017 30.03 846 24.98 -14.8 5.3 78 -17.9 -0.2 0 0
16:09 1017 30.03 846 24.98 -14.9 5.2 78 -17.9 -0.2 0 0
16:10 1017 30.03 846 24.98 -14.9 5.1 75 -18.5 -1.2 0 0
16:11 1017 30.03 846 24.98 -15.5 4.2 70 -19.7 -3.5 0 0
16:12 1017 30.03 846 24.98 -16.2 2.9 71 -20.4 -4.6 0 0
16:13 1017 30.03 846 24.98 -16.7 1.9 76 -20 -3.9 0 0
16:14 1017 30.03 846 24.98 -17 1.5 78 -19.9 -3.9 0 0
16:15 1017 30.03 846 24.98 -16.8 1.7 82 -19.2 -2.6 0 0
16:16 1017 30.03 846 24.98 -16.8 1.7 79 -19.7 -3.4 0 0
16:17 1017 30.03 846 24.98 -16.9 1.6 79 -19.8 -3.6 0 0
16:18 1017 30.03 846 24.98 -17 1.3 79 -19.9 -3.8 0 0
16:19 1017 30.03 846 24.98 -17.2 1 78 -20.1 -4.2 0 0
16:20 1017 30.03 846 24.98 -17.3 0.9 82 -19.7 -3.5 0 0
16:21 1017 30.03 846 24.98 -17.1 1.2 82 -19.5 -3.1 0 0
16:22 1016 30 846 24.98 -17 1.4 81 -19.6 -3.2 0 0
16:23 1016 30 846 24.98 -16.9 1.5 80 -19.6 -3.3 0 0
16:24 1016 30 846 24.98 -17 1.3 78 -20 -4 0 0
16:25 1016 30 846 24.98 -17.2 1.1 79 -19.9 -3.9 0 0
16:26 1016 30 846 24.98 -17.2 1 81 -19.7 -3.5 0 0
16:27 1016 30 846 24.98 -17.2 1.1 82 -19.6 -3.3 0 0
16:28 1016 30 846 24.98 -17.1 1.2 81 -19.6 -3.3 0 0
16:29 1016 30 846 24.98 -17.1 1.2 79 -19.9 -3.8 0 0
16:30 1016 30 846 24.98 -17.4 0.7 77 -20.5 -5 0 0
16:31 1016 30 846 24.98 -17.6 0.4 80 -20.2 -4.3 0 0
16:32 1016 30 846 24.98 -17.5 0.5 83 -19.8 -3.6 0 0
16:33 1016 30 846 24.98 -17.3 0.9 84 -19.4 -2.9 0 0
16:34 1016 30 846 24.98 -17.1 1.3 84 -19.2 -2.5 0 0
16:35 1016 30 846 24.98 -16.9 1.6 82 -19.3 -2.7 0 0
16:36 1016 30 846 24.98 -16.9 1.7 82 -19.2 -2.6 0 0
16:37 1016 30 845 24.95 -16.8 1.7 82 -19.3 -2.7 0 0
16:38 1016 30 845 24.95 -16.8 1.7 81 -19.4 -2.9 0 0
16:39 1016 30 845 24.95 -17 1.4 79 -19.9 -3.7 0 0
16:40 1016 30 845 24.95 -17.3 0.9 79 -20.2 -4.3 0 0
16:41 1016 30 845 24.95 -17.6 0.4 80 -20.3 -4.5 0 0
16:42 1016 30 845 24.95 -17.7 0.2 80 -20.3 -4.6 0 0
16:43 1016 30 845 24.95 -17.8 -0.1 80 -20.5 -4.8 0 0
16:44 1016 30 845 24.95 -18 -0.3 81 -20.5 -4.9 0 0
16:45 1016 30 845 24.95 -18 -0.4 82 -20.3 -4.5 0 0
16:46 1016 30 845 24.95 -17.7 0.2 87 -19.3 -2.7 0 0
16:47 1016 30 845 24.95 -17.3 0.8 83 -19.6 -3.2 0 0
16:48 1016 30 845 24.95 -17.5 0.5 81 -20.1 -4.1 0 0
16:49 1016 30 845 24.95 -17.7 0.2 81 -20.2 -4.3 0 0
16:50 1016 30 845 24.95 -17.7 0.1 83 -20 -4 0 0
16:51 1016 30 845 24.95 -17.8 -0.1 81 -20.4 -4.6 0 0
16:52 1016 30 845 24.95 -17.9 -0.2 83 -20.2 -4.3 0 0
16:53 1016 30 845 24.95 -17.8 0 84 -19.8 -3.6 0 0
16:54 1016 30 845 24.95 -17.6 0.3 84 -19.7 -3.4 0 0
16:55 1016 30 845 24.95 -17.7 0.1 79 -20.5 -4.9 0 0
16:56 1016 30 845 24.95 -18.1 -0.6 79 -20.9 -5.7 0 0
16:57 1016 30 845 24.95 -18.2 -0.8 82 -20.6 -5 0 0
16:58 1016 30 845 24.95 -18.4 -1.1 80 -21.1 -5.9 0 0
16:59 1016 30 845 24.95 -18.5 -1.3 84 -20.6 -5 0 0
17:00 1016 30 845 24.95 -18.2 -0.8 85 -20.1 -4.3 0 0
17:01 1016 30 845 24.95 -18 -0.4 84 -20.1 -4.2 0 0
17:02 1016 30 845 24.95 -18 -0.5 84 -20.2 -4.3 0 0
17:03 1016 30 845 24.95 -17.9 -0.3 85 -19.9 -3.7 0 0
17:04 1016 30 845 24.95 -17.7 0.1 85 -19.6 -3.3 0 0
17:05 1016 30 845 24.95 -17.6 0.3 83 -19.8 -3.7 0 0
17:06 1016 30 845 24.95 -17.7 0.2 82 -20.1 -4.2 0 0
17:07 1016 30 845 24.95 -17.9 -0.1 81 -20.3 -4.6 0 0
17:08 1016 30 845 24.95 -17.9 -0.1 83 -20.1 -4.1 0 0
17:09 1016 30 845 24.95 -17.8 -0 84 -19.9 -3.9 0 0
17:10 1016 30 845 24.95 -17.8 -0 82 -20.2 -4.3 0 0
17:11 1016 30 845 24.95 -18 -0.3 80 -20.6 -5 0 0
17:12 1016 30 845 24.95 -18.1 -0.5 82 -20.5 -4.9 0 0
17:13 1016 30 845 24.95 -18.2 -0.8 82 -20.6 -5.1 0 0
17:14 1016 30 845 24.95 -18.3 -1 81 -20.8 -5.5 0 0
17:15 1016 30 845 24.95 -18.5 -1.2 82 -20.9 -5.5 0 0
17:16 1016 30 845 24.95 -18.5 -1.2 83 -20.7 -5.2 0 0
17:17 1016 30 845 24.95 -18.4 -1.2 83 -20.6 -5.1 0 0
17:18 1016 30 845 24.95 -18.4 -1.1 83 -20.6 -5.1 0 0
17:19 1016 30 845 24.95 -18.3 -1 84 -20.4 -4.7 0 0
17:20 1016 30 845 24.95 -18.2 -0.8 84 -20.3 -4.6 0 0
17:21 1016 30 845 24.95 -18.1 -0.6 85 -20 -4 0 0
17:22 1016 30 845 24.95 -17.9 -0.2 86 -19.7 -3.5 0 0
17:23 1016 30 845 24.95 -17.8 0 84 -19.9 -3.8 0 0
17:24 1016 30 845 24.95 -17.8 -0.1 83 -20.1 -4.1 0 0
17:25 1016 30 845 24.95 -17.8 -0 84 -19.9 -3.8 0 0
17:26 1016 30 845 24.95 -17.7 0.1 84 -19.8 -3.7 0 0
17:27 1016 30 845 24.95 -17.8 0.1 82 -20.1 -4.2 0 0
17:28 1016 30 845 24.95 -17.9 -0.3 81 -20.5 -4.9 0 0
17:29 1016 30 845 24.95 -18.2 -0.8 79 -21 -5.8 0 0
17:30 1016 30 845 24.95 -18.6 -1.4 80 -21.3 -6.3 0 0
17:31 1016 30 845 24.95 -18.6 -1.4 82 -20.9 -5.6 0 0
17:32 1016 30 845 24.95 -18.6 -1.5 84 -20.7 -5.3 0 0
17:33 1016 30 845 24.95 -18.3 -1 86 -20.1 -4.3 0 0
17:34 1016 30 845 24.95 -18 -0.3 89 -19.4 -2.9 0 0
17:35 1016 30 845 24.95 -17.4 0.7 90 -18.7 -1.6 0 0
17:36 1016 30 845 24.95 -17.2 1.1 86 -19 -2.3 0 0
17:37 1016 30 845 24.95 -17.4 0.6 80 -20.2 -4.3 0 0
17:38 1016 30 845 24.95 -17.8 -0 81 -20.3 -4.5 0 0
17:39 1016 30 845 24.95 -17.8 -0 84 -19.9 -3.8 0 0
17:40 1016 30 845 24.95 -17.8 -0 83 -20 -4 0 0
17:41 1016 30 845 24.95 -17.9 -0.2 82 -20.2 -4.4 0 0
17:42 1016 30 845 24.95 -17.9 -0.3 83 -20.2 -4.3 0 0
17:43 1016 30 845 24.95 -18 -0.4 83 -20.2 -4.4 0 0
17:44 1016 30 845 24.95 -18 -0.3 83 -20.1 -4.2 0 0
17:45 1016 30 845 24.95 -17.9 -0.2 86 -19.7 -3.5 0 0
17:46 1016 30 845 24.95 -17.5 0.5 89 -18.9 -1.9 0 0
17:47 1016 30 845 24.95 -16.9 1.6 90 -18.1 -0.6 0 0
17:48 1016 30 845 24.95 -16.3 2.6 90 -17.5 0.4 0 0
17:49 1016 30 845 24.95 -16.1 3.1 86 -17.9 -0.3 0 0
17:50 1016 30 845 24.95 -16.3 2.7 82 -18.7 -1.6 0 0
17:51 1016 30 845 24.95 -16.5 2.4 82 -18.8 -1.9 0 0
17:52 1016 30 845 24.95 -16.4 2.5 84 -18.4 -1.2 0 0
17:53 1016 30 845 24.95 -16.5 2.3 81 -19.1 -2.4 0 0
17:54 1016 30 845 24.95 -16.7 1.9 81 -19.2 -2.6 0 0
17:55 1016 30 845 24.95 -16.8 1.8 83 -19 -2.1 0 0
17:56 1016 30 845 24.95 -16.8 1.7 82 -19.2 -2.6 0 0
17:57 1016 30 845 24.95 -16.9 1.5 81 -19.4 -2.9 0 0
17:58 1016 30 845 24.95 -17 1.3 82 -19.4 -3 0 0
17:59 1016 30 845 24.95 -17 1.5 85 -19 -2.2 0 0
18:00 1016 30 845 24.95 -16.8 1.8 85 -18.7 -1.7 0 0
18:01 1016 30 845 24.95 -16.6 2 85 -18.7 -1.6 0 0
18:02 1016 30 845 24.95 -16.6 2.2 85 -18.5 -1.4 0 0
18:03 1016 30 845 24.95 -16.5 2.4 85 -18.4 -1.1 0 0
18:04 1016 30 845 24.95 -16.4 2.6 85 -18.3 -0.9 0 0
18:05 1016 30 845 24.95 -16.2 2.9 86 -18 -0.5 0 0
18:06 1016 30 845 24.95 -16.1 3 85 -18 -0.5 0 0
18:07 1016 30 845 24.95 -16 3.2 85 -18 -0.3 0 0
18:08 1016 30 845 24.95 -15.9 3.5 86 -17.7 0.2 0 0
18:09 1016 30 845 24.95 -15.7 3.8 86 -17.5 0.5 0 0
18:10 1016 30 845 24.95 -15.5 4 86 -17.4 0.7 0 0
18:11 1016 30 845 24.95 -15.4 4.3 85 -17.3 0.8 0 0
18:12 1016 30 845 24.95 -15.3 4.5 85 -17.2 1 0 0
18:13 1016 30 845 24.95 -15.2 4.7 85 -17.2 1.1 0 0
18:14 1016 30 845 24.95 -15.1 4.8 85 -17.1 1.2 0 0
18:15 1016 30 845 24.95 -15 4.9 85 -17.1 1.3 0 0
18:16 1016 30 845 24.95 -15 5.1 84 -17 1.3 0 0
18:17 1016 30 845 24.95 -14.8 5.3 86 -16.6 2.1 0 0
18:18 1016 30 845 24.95 -14.5 5.9 86 -16.4 2.6 0 0
18:19 1016 30 845 24.95 -14.3 6.3 86 -16.2 2.8 0 0
18:20 1016 30 845 24.95 -14.1 6.6 84 -16.2 2.8 0 0
18:21 1016 30 845 24.95 -14 6.8 83 -16.3 2.7 0 0
18:22 1016 30 845 24.95 -14 6.7 82 -16.5 2.3 0 0
18:23 1016 30 845 24.95 -14.1 6.6 83 -16.5 2.3 0 0
18:24 1016 30 845 24.95 -14.2 6.5 83 -16.5 2.4 0 0
18:25 1016 30 845 24.95 -14.2 6.5 83 -16.4 2.4 0 0
18:26 1016 30 845 24.95 -14.1 6.6 83 -16.4 2.5 0 0
18:27 1016 30 845 24.95 -14.1 6.7 84 -16.3 2.7 0 0
18:28 1016 30 845 24.95 -14 6.8 84 -16.2 2.8 0 0
18:29 1016 30 845 24.95 -14 6.9 83 -16.2 2.8 0 0
18:30 1016 30 845 24.95 -13.9 6.9 83 -16.2 2.9 0 0
18:31 1016 30 845 24.95 -13.9 7 83 -16.2 2.9 0 0
18:32 1016 30 845 24.95 -13.9 7 84 -16 3.2 0 0
18:33 1016 30 845 24.95 -13.7 7.3 86 -15.6 3.8 0 0
18:34 1016 30 845 24.95 -13.5 7.7 85 -15.6 4 0 0
18:35 1016 30 845 24.95 -13.4 8 85 -15.4 4.2 0 0
18:36 1016 30 845 24.95 -13.2 8.3 86 -15.1 4.8 0 0
18:37 1016 30 845 24.95 -12.9 8.7 85 -14.9 5.2 0 0
18:38 1016 30 845 24.95 -12.6 9.2 84 -14.8 5.4 0 0
18:39 1016 30 845 24.95 -12.5 9.5 83 -14.8 5.3 0 0
18:40 1016 30 845 24.95 -12.5 9.4 79 -15.4 4.2 0 0
18:41 1016 30 845 24.95 -12.8 9 81 -15.4 4.2 0 0
18:42 1016 30 845 24.95 -12.9 8.9 82 -15.3 4.5 0 0
18:43 1016 30 845 24.95 -12.8 8.9 82 -15.3 4.4 0 0
18:44 1015 29.97 845 24.95 -12.8 8.9 82 -15.3 4.4 0 0
18:45 1015 29.97 845 24.95 -12.8 8.9 81 -15.4 4.3 0 0
18:46 1015 29.97 845 24.95 -12.9 8.7 81 -15.6 3.9 0 0
18:47 1016 30 845 24.95 -13 8.5 81 -15.6 3.9 0 0
18:48 1016 30 845 24.95 -13 8.6 82 -15.4 4.2 0 0
18:49 1016 30 845 24.95 -13.1 8.4 81 -15.7 3.8 0 0
18:50 1016 30 845 24.95 -13.1 8.5 83 -15.4 4.4 0 0
18:51 1015 29.97 845 24.95 -12.9 8.7 84 -15.1 4.8 0 0
18:52 1015 29.97 845 24.95 -12.8 9 84 -15 5 0 0
18:53 1015 29.97 845 24.95 -12.7 9.2 83 -14.9 5.1 0 0
18:54 1015 29.97 845 24.95 -12.6 9.3 81 -15.3 4.5 0 0
18:55 1015 29.97 845 24.95 -12.8 9 81 -15.4 4.2 0 0
18:56 1015 29.97 845 24.95 -12.8 8.9 82 -15.2 4.6 0 0
18:57 1015 29.97 845 24.95 -12.7 9.1 83 -15 5 0 0
18:58 1015 29.97 845 24.95 -12.6 9.3 84 -14.8 5.4 0 0
18:59 1015 29.97 845 24.95 -12.5 9.5 83 -14.8 5.3 0 0
19:00 1015 29.97 845 24.95 -12.4 9.6 83 -14.8 5.4 0 0
19:01 1015 29.97 845 24.95 -12.5 9.5 81 -15.1 4.8 0 0
19:02 1015 29.97 845 24.95 -12.7 9.2 79 -15.5 4 0 0
19:03 1015 29.97 845 24.95 -12.9 8.9 80 -15.6 3.9 0 0
19:04 1015 29.97 845 24.95 -12.9 8.7 82 -15.4 4.3 0 0
19:05 1015 29.97 845 24.95 -12.9 8.8 83 -15.3 4.5 0 0
19:06 1015 29.97 845 24.95 -12.9 8.8 81 -15.5 4.2 0 0
19:07 1015 29.97 845 24.95 -13 8.6 81 -15.7 3.8 0 0
19:08 1015 29.97 845 24.95 -13.1 8.4 81 -15.7 3.8 0 0
19:09 1015 29.97 845 24.95 -13.1 8.4 84 -15.3 4.4 0 0
19:10 1015 29.97 845 24.95 -13 8.6 85 -15.1 4.9 0 0
19:11 1015 29.97 845 24.95 -12.8 8.9 85 -14.9 5.2 0 0
19:12 1015 29.97 845 24.95 -12.8 9 81 -15.3 4.4 0 0
19:13 1015 29.97 845 24.95 -12.9 8.8 81 -15.5 4.1 0 0
19:14 1015 29.97 845 24.95 -13 8.6 81 -15.6 3.9 0 0
19:15 1015 29.97 844 24.92 -13 8.5 82 -15.5 4.1 0 0
19:16 1015 29.97 844 24.92 -13.1 8.4 83 -15.5 4.1 0 0
19:17 1015 29.97 844 24.92 -13.1 8.4 83 -15.5 4.1 0 0
19:18 1015 29.97 844 24.92 -13.2 8.2 83 -15.6 3.9 0 0
19:19 1015 29.97 844 24.92 -13.3 8.1 83 -15.5 4 0 0
19:20 1015 29.97 844 24.92 -13.2 8.3 86 -15 5 0 0
19:21 1015 29.97 844 24.92 -12.8 8.9 85 -14.8 5.3 0 0
19:22 1015 29.97 844 24.92 -12.8 9 82 -15.2 4.6 0 0
19:23 1015 29.97 844 24.92 -12.8 8.9 82 -15.3 4.5 0 0
19:24 1015 29.97 844 24.92 -12.9 8.8 83 -15.3 4.5 0 0
19:25 1015 29.97 844 24.92 -13 8.7 82 -15.4 4.2 0 0
19:26 1015 29.97 844 24.92 -13 8.5 82 -15.5 4.2 0 0
19:27 1015 29.97 844 24.92 -13.1 8.5 83 -15.4 4.3 0 0
19:28 1015 29.97 844 24.92 -13.1 8.5 83 -15.3 4.4 0 0
19:29 1015 29.97 844 24.92 -13.1 8.5 83 -15.3 4.4 0 0
19:30 1015 29.97 844 24.92 -13.1 8.5 83 -15.3 4.4 0 0
19:31 1015 29.97 844 24.92 -13.1 8.5 83 -15.4 4.3 0 0
19:32 1015 29.97 844 24.92 -13.1 8.4 84 -15.3 4.5 0 0
19:33 1015 29.97 844 24.92 -13 8.6 85 -15 5 0 0
19:34 1015 29.97 844 24.92 -12.9 8.9 83 -15.1 4.8 0 0
19:35 1015 29.97 844 24.92 -12.9 8.8 82 -15.3 4.5 0 0
19:36 1015 29.97 844 24.92 -13 8.7 83 -15.3 4.4 0 0
19:37 1015 29.97 844 24.92 -13 8.6 83 -15.3 4.4 0 0
19:38 1015 29.97 844 24.92 -13 8.7 83 -15.2 4.6 0 0
19:39 1015 29.97 844 24.92 -12.9 8.8 84 -15 4.9 0 0
19:40 1015 29.97 844 24.92 -12.8 9 84 -15 5.1 0 0
19:41 1015 29.97 844 24.92 -12.7 9.2 83 -15.1 4.9 0 0
19:42 1015 29.97 844 24.92 -12.8 9 81 -15.3 4.4 0 0
19:43 1015 29.97 844 24.92 -12.9 8.9 83 -15.2 4.7 0 0
19:44 1015 29.97 844 24.92 -12.8 9 84 -14.9 5.1 0 0
19:45 1015 29.97 844 24.92 -12.6 9.3 84 -14.8 5.3 0 0
19:46 1015 29.97 844 24.92 -12.7 9.2 82 -15.2 4.7 0 0
19:47 1015 29.97 844 24.92 -12.8 9.1 82 -15.2 4.6 0 0
19:48 1015 29.97 844 24.92 -12.8 8.9 81 -15.4 4.3 0 0
19:49 1015 29.97 844 24.92 -12.9 8.8 82 -15.3 4.4 0 0
19:50 1015 29.97 844 24.92 -13 8.7 83 -15.3 4.4 0 0
19:51 1015 29.97 844 24.92 -12.9 8.7 83 -15.2 4.7 0 0
19:52 1015 29.97 844 24.92 -13 8.7 82 -15.4 4.2 0 0
19:53 1015 29.97 844 24.92 -13 8.6 84 -15.2 4.6 0 0
19:54 1015 29.97 844 24.92 -13 8.6 83 -15.3 4.4 0 0
19:55 1015 29.97 844 24.92 -13 8.6 83 -15.2 4.6 0 0
19:56 1015 29.97 844 24.92 -13 8.7 84 -15.1 4.8 0 0
19:57 1015 29.97 844 24.92 -12.8 8.9 86 -14.6 5.6 0 0
19:58 1014 29.94 844 24.92 -12.6 9.3 85 -14.6 5.7 0 0
19:59 1014 29.94 844 24.92 -12.6 9.4 82 -15 5.1 0 0
20:00 1015 29.97 844 24.92 -12.7 9.2 83 -15 5 0 0
20:01 1015 29.97 844 24.92 -12.7 9.2 85 -14.6 5.6 0 0
20:02 1015 29.97 844 24.92 -12.5 9.5 87 -14.3 6.3 0 0
20:03 1015 29.97 844 24.92 -12.3 9.8 87 -14.1 6.5 0 0
20:04 1015 29.97 844 24.92 -12.2 10 86 -14.1 6.5 0 0
20:05 1015 29.97 844 24.92 -12.2 10.1 85 -14.2 6.4 0 0
20:06 1015 29.97 844 24.92 -12.2 10.1 83 -14.5 6 0 0
20:07 1015 29.97 844 24.92 -12.3 9.9 82 -14.7 5.5 0 0
20:08 1015 29.97 844 24.92 -12.4 9.6 82 -14.9 5.2 0 0
20:09 1015 29.97 844 24.92 -12.6 9.4 80 -15.3 4.4 0 0
20:10 1015 29.97 844 24.92 -12.8 8.9 80 -15.6 4 0 0
20:11 1015 29.97 844 24.92 -13 8.6 81 -15.6 3.9 0 0
20:12 1015 29.97 844 24.92 -13.1 8.5 80 -15.8 3.6 0 0
20:13 1015 29.97 844 24.92 -13.3 8.1 80 -16.1 3 0 0
20:14 1015 29.97 844 24.92 -13.4 7.9 81 -15.9 3.3 0 0
20:15 1015 29.97 844 24.92 -13.2 8.2 84 -15.4 4.3 0 0
20:16 1015 29.97 844 24.92 -13.2 8.3 78 -16.3 2.7 0 0
20:17 1015 29.97 844 24.92 -13.5 7.7 79 -16.5 2.4 0 0
20:18 1015 29.97 844 24.92 -13.7 7.4 81 -16.3 2.6 0 0
20:19 1015 29.97 844 24.92 -13.8 7.2 82 -16.2 2.8 0 0
20:20 1015 29.97 844 24.92 -13.8 7.2 84 -16 3.3 0 0
20:21 1015 29.97 844 24.92 -13.8 7.2 84 -16 3.2 0 0
20:22 1015 29.97 844 24.92 -13.8 7.2 84 -15.9 3.3 0 0
20:23 1015 29.97 844 24.92 -13.8 7.2 84 -16 3.2 0 0
20:24 1015 29.97 844 24.92 -13.8 7.1 83 -16.2 2.9 0 0
20:25 1015 29.97 844 24.92 -13.9 6.9 84 -16 3.2 0 0
20:26 1015 29.97 844 24.92 -13.8 7.1 87 -15.6 3.9 0 0
20:27 1015 29.97 844 24.92 -13.6 7.4 86 -15.6 4 0 0
20:28 1015 29.97 844 24.92 -13.6 7.6 85 -15.6 3.9 0 0
20:29 1015 29.97 844 24.92 -13.5 7.7 82 -16 3.3 0 0
20:30 1015 29.97 844 24.92 -13.6 7.5 82 -16.1 3 0 0
20:31 1015 29.97 844 24.92 -13.7 7.3 85 -15.7 3.7 0 0
20:32 1015 29.97 844 24.92 -13.6 7.5 85 -15.6 4 0 0
20:33 1015 29.97 844 24.92 -13.5 7.6 85 -15.5 4.1 0 0
20:34 1015 29.97 844 24.92 -13.5 7.8 85 -15.5 4.1 0 0
20:35 1015 29.97 844 24.92 -13.4 7.8 85 -15.4 4.3 0 0
20:36 1014 29.94 844 24.92 -13.4 7.9 85 -15.4 4.3 0 0
20:37 1014 29.94 844 24.92 -13.4 7.9 85 -15.4 4.3 0 0
20:38 1014 29.94 844 24.92 -13.4 7.9 84 -15.6 4 0 0
20:39 1014 29.94 844 24.92 -13.4 7.8 85 -15.5 4.2 0 0
20:40 1014 29.94 843 24.89 -13.5 7.8 85 -15.4 4.2 0 0
20:41 1014 29.94 843 24.89 -13.4 7.8 86 -15.3 4.5 0 0
20:42 1014 29.94 843 24.89 -13.4 8 86 -15.2 4.6 0 0
20:43 1014 29.94 843 24.89 -13.3 8 86 -15.2 4.7 0 0
20:44 1014 29.94 843 24.89 -13.3 8.1 86 -15.1 4.8 0 0
20:45 1014 29.94 844 24.92 -13.3 8.1 86 -15.1 4.8 0 0
20:46 1014 29.94 844 24.92 -13.2 8.2 87 -15 5 0 0
20:47 1014 29.94 844 24.92 -13.1 8.4 87 -14.8 5.3 0 0
20:48 1014 29.94 844 24.92 -13 8.6 87 -14.7 5.5 0 0
20:49 1014 29.94 844 24.92 -12.9 8.7 87 -14.7 5.6 0 0
20:50 1014 29.94 844 24.92 -12.9 8.9 87 -14.6 5.7 0 0
20:51 1014 29.94 843 24.89 -12.8 9 86 -14.6 5.7 0 0
20:52 1014 29.94 843 24.89 -12.8 9.1 86 -14.6 5.8 0 0
20:53 1014 29.94 843 24.89 -12.7 9.2 86 -14.5 5.9 0 0
20:54 1014 29.94 843 24.89 -12.7 9.2 86 -14.6 5.8 0 0
20:55 1014 29.94 843 24.89 -12.7 9.2 86 -14.6 5.8 0 0
20:56 1014 29.94 843 24.89 -12.7 9.2 86 -14.6 5.7 0 0
20:57 1014 29.94 843 24.89 -12.7 9.2 86 -14.6 5.7 0 0
20:58 1014 29.94 843 24.89 -12.7 9.2 86 -14.6 5.8 0 0
20:59 1014 29.94 843 24.89 -12.7 9.2 86 -14.6 5.8 0 0
21:00 1014 29.94 843 24.89 -12.7 9.2 86 -14.5 5.9 0 0
21:01 1014 29.94 843 24.89 -12.6 9.2 86 -14.5 5.9 0 0
21:02 1014 29.94 843 24.89 -12.7 9.2 86 -14.5 5.9 0 0
21:03 1014 29.94 843 24.89 -12.6 9.3 86 -14.5 6 0 0
21:04 1014 29.94 843 24.89 -12.7 9.2 86 -14.5 5.9 0 0
21:05 1014 29.94 843 24.89 -12.6 9.2 86 -14.5 5.9 0 0
21:06 1014 29.94 843 24.89 -12.6 9.3 86 -14.5 5.9 0 0
21:07 1014 29.94 843 24.89 -12.6 9.3 86 -14.5 5.9 0 0
21:08 1014 29.94 843 24.89 -12.6 9.3 86 -14.4 6 0 0
21:09 1014 29.94 843 24.89 -12.6 9.3 86 -14.4 6 0 0
21:10 1014 29.94 843 24.89 -12.6 9.4 86 -14.4 6 0 0
21:11 1014 29.94 843 24.89 -12.5 9.5 86 -14.4 6.1 0 0
21:12 1014 29.94 843 24.89 -12.5 9.4 86 -14.4 6.1 0 0
21:13 1014 29.94 843 24.89 -12.5 9.4 86 -14.4 6 0 0
21:14 1014 29.94 843 24.89 -12.5 9.5 86 -14.4 6 0 0
21:15 1014 29.94 843 24.89 -12.5 9.5 86 -14.4 6.1 0 0
21:16 1014 29.94 843 24.89 -12.5 9.5 86 -14.4 6.1 0 0
21:17 1014 29.94 843 24.89 -12.5 9.5 86 -14.4 6 0 0
21:18 1014 29.94 843 24.89 -12.5 9.5 86 -14.4 6 0 0
21:19 1014 29.94 843 24.89 -12.5 9.5 85 -14.5 6 0 0
21:20 1014 29.94 843 24.89 -12.5 9.6 85 -14.4 6 0 0
21:21 1014 29.94 843 24.89 -12.5 9.6 85 -14.5 6 0 0
21:22 1014 29.94 843 24.89 -12.5 9.6 85 -14.5 5.9 0 0
21:23 1014 29.94 843 24.89 -12.4 9.6 85 -14.5 6 0 0
21:24 1014 29.94 843 24.89 -12.5 9.5 86 -14.4 6 0 0
21:25 1014 29.94 843 24.89 -12.4 9.6 86 -14.4 6.2 0 0
21:26 1014 29.94 843 24.89 -12.4 9.6 86 -14.4 6.1 0 0
21:27 1014 29.94 843 24.89 -12.4 9.6 86 -14.4 6.2 0 0
21:28 1014 29.94 843 24.89 -12.4 9.7 86 -14.3 6.3 0 0
21:29 1014 29.94 843 24.89 -12.4 9.8 86 -14.2 6.4 0 0
21:30 1014 29.94 843 24.89 -12.3 9.8 87 -14.1 6.6 0 0
21:31 1014 29.94 843 24.89 -12.3 9.9 87 -14.1 6.7 0 0
21:32 1014 29.94 843 24.89 -12.2 10 87 -14 6.8 0 0
21:33 1014 29.94 843 24.89 -12.2 10.1 87 -13.9 7 0 0
21:34 1014 29.94 843 24.89 -12.1 10.2 87 -13.8 7.1 0 0
21:35 1014 29.94 843 24.89 -12.1 10.3 87 -13.8 7.2 0 0
21:36 1014 29.94 843 24.89 -12 10.4 87 -13.8 7.2 0 0
21:37 1014 29.94 843 24.89 -12 10.5 87 -13.7 7.3 0 0
21:38 1014 29.94 843 24.89 -11.9 10.5 87 -13.7 7.3 0 0
21:39 1014 29.94 843 24.89 -11.9 10.6 87 -13.7 7.4 0 0
21:40 1014 29.94 843 24.89 -11.8 10.7 86 -13.7 7.4 0 0
21:41 1014 29.94 843 24.89 -11.8 10.8 86 -13.7 7.4 0 0
21:42 1014 29.94 843 24.89 -11.8 10.8 86 -13.7 7.3 0 0
21:43 1014 29.94 843 24.89 -11.8 10.8 85 -13.8 7.1 0 0
21:44 1014 29.94 843 24.89 -11.9 10.5 85 -14 6.8 0 0
21:45 1014 29.94 843 24.89 -12 10.4 85 -14.1 6.7 0 0
21:46 1014 29.94 843 24.89 -12.1 10.2 85 -14.2 6.5 0 0
21:47 1014 29.94 843 24.89 -12.2 10.1 85 -14.2 6.4 0 0
21:48 1014 29.94 843 24.89 -12.2 10 85 -14.2 6.5 0 0
21:49 1014 29.94 843 24.89 -12.3 9.9 86 -14.2 6.4 0 0
21:50 1014 29.94 843 24.89 -12.3 9.8 86 -14.2 6.4 0 0
21:51 1014 29.94 843 24.89 -12.3 9.8 86 -14.2 6.4 0 0
21:52 1014 29.94 843 24.89 -12.4 9.7 86 -14.2 6.4 0 0
21:53 1014 29.94 843 24.89 -12.4 9.7 87 -14.2 6.5 0 0
21:54 1014 29.94 843 24.89 -12.4 9.8 87 -14.1 6.6 0 0
21:55 1014 29.94 843 24.89 -12.4 9.8 87 -14.1 6.7 0 0
21:56 1014 29.94 843 24.89 -12.3 9.8 87 -14 6.8 0 0
21:57 1014 29.94 843 24.89 -12.3 9.9 88 -13.9 6.9 0 0
21:58 1014 29.94 843 24.89 -12.3 9.9 88 -13.9 7 0 0
21:59 1014 29.94 843 24.89 -12.2 10.1 88 -13.8 7.2 0 0
22:00 1014 29.94 843 24.89 -12.1 10.2 88 -13.7 7.4 0 0
22:01 1014 29.94 843 24.89 -12 10.4 89 -13.5 7.6 0 0
22:02 1014 29.94 843 24.89 -11.9 10.5 89 -13.5 7.8 0 0
22:03 1014 29.94 843 24.89 -11.8 10.7 89 -13.3 8 0 0
22:04 1014 29.94 843 24.89 -11.8 10.8 88 -13.3 8 0 0
22:05 1014 29.94 843 24.89 -11.7 11 88 -13.2 8.2 0 0
22:06 1014 29.94 843 24.89 -11.6 11.1 88 -13.2 8.2 0 0
22:07 1014 29.94 843 24.89 -11.5 11.3 88 -13.1 8.4 0 0
22:08 1014 29.94 843 24.89 -11.5 11.4 88 -13.1 8.5 0 0
22:09 1014 29.94 843 24.89 -11.4 11.4 88 -13.1 8.4 0 0
22:10 1014 29.94 843 24.89 -11.4 11.5 87 -13.1 8.5 0 0
22:11 1014 29.94 843 24.89 -11.3 11.7 87 -13 8.6 0 0
22:12 1014 29.94 843 24.89 -11.3 11.7 87 -13.1 8.5 0 0
22:13 1014 29.94 843 24.89 -11.2 11.8 87 -13 8.5 0 0
22:14 1014 29.94 843 24.89 -11.3 11.7 87 -13.1 8.5 0 0
22:15 1014 29.94 843 24.89 -11.2 11.9 87 -13 8.6 0 0
22:16 1014 29.94 843 24.89 -11.2 11.9 86 -13 8.6 0 0
22:17 1013 29.91 843 24.89 -11.1 12 86 -13 8.7 0 0
22:18 1013 29.91 843 24.89 -11.1 12 86 -13 8.6 0 0
22:19 1013 29.91 843 24.89 -11.1 12.1 86 -13 8.7 0 0
22:20 1013 29.91 843 24.89 -11 12.3 86 -12.9 8.8 0 0
22:21 1013 29.91 843 24.89 -10.9 12.3 86 -12.9 8.9 0 0
22:22 1013 29.91 843 24.89 -10.9 12.4 86 -12.8 8.9 0 0
22:23 1013 29.91 843 24.89 -10.9 12.4 86 -12.8 9 0 0
22:24 1013 29.91 843 24.89 -10.8 12.5 86 -12.8 9 0 0
22:25 1013 29.91 843 24.89 -10.8 12.5 86 -12.7 9.1 0 0
22:26 1013 29.91 843 24.89 -10.8 12.6 86 -12.7 9.1 0 0
22:27 1013 29.91 843 24.89 -10.7 12.7 86 -12.7 9.2 0 0
22:28 1013 29.91 843 24.89 -10.7 12.7 86 -12.6 9.3 0 0
22:29 1013 29.91 843 24.89 -10.7 12.8 86 -12.6 9.3 0 0
22:30 1013 29.91 843 24.89 -10.7 12.8 86 -12.6 9.3 0 0
22:31 1013 29.91 843 24.89 -10.7 12.8 86 -12.6 9.3 0 0
22:32 1013 29.91 843 24.89 -10.6 12.9 86 -12.6 9.4 0 0
22:33 1013 29.91 843 24.89 -10.6 12.9 86 -12.6 9.4 0 0
22:34 1013 29.91 843 24.89 -10.6 13 86 -12.5 9.4 0 0
22:35 1013 29.91 843 24.89 -10.6 13 86 -12.5 9.4 0 0
22:36 1013 29.91 843 24.89 -10.5 13 86 -12.5 9.5 0 0
22:37 1013 29.91 843 24.89 -10.5 13 86 -12.5 9.5 0 0
22:38 1013 29.91 843 24.89 -10.5 13 86 -12.5 9.5 0 0
22:39 1013 29.91 843 24.89 -10.5 13.1 86 -12.5 9.5 0 0
22:40 1013 29.91 843 24.89 -10.5 13.1 86 -12.5 9.5 0 0
22:41 1013 29.91 843 24.89 -10.5 13.1 86 -12.5 9.6 0 0
22:42 1013 29.91 843 24.89 -10.5 13.2 86 -12.4 9.6 0 0
22:43 1013 29.91 842 24.86 -10.5 13.1 86 -12.5 9.6 0 0
22:44 1013 29.91 842 24.86 -10.5 13.1 85 -12.5 9.5 0 0
22:45 1013 29.91 842 24.86 -10.6 13 85 -12.6 9.4 0 0
22:46 1013 29.91 842 24.86 -10.6 12.8 85 -12.7 9.1 0 0
22:47 1013 29.91 842 24.86 -10.7 12.8 85 -12.7 9.1 0 0
22:48 1013 29.91 842 24.86 -10.7 12.8 85 -12.7 9.1 0 0
22:49 1013 29.91 842 24.86 -10.7 12.7 85 -12.7 9.1 0 0
22:50 1013 29.91 842 24.86 -10.7 12.7 85 -12.7 9.1 0 0
22:51 1013 29.91 842 24.86 -10.7 12.7 85 -12.7 9.1 0 0
22:52 1013 29.91 842 24.86 -10.7 12.8 85 -12.8 9 0 0
22:53 1013 29.91 842 24.86 -10.7 12.7 85 -12.8 9 0 0
22:54 1013 29.91 842 24.86 -10.7 12.7 85 -12.8 9 0 0
22:55 1013 29.91 843 24.89 -10.7 12.8 85 -12.7 9.1 0 0
22:56 1013 29.91 842 24.86 -10.7 12.8 85 -12.7 9.1 0 0
22:57 1013 29.91 842 24.86 -10.7 12.8 85 -12.7 9.1 0 0
22:58 1013 29.91 842 24.86 -10.7 12.8 85 -12.7 9.1 0 0
22:59 1013 29.91 842 24.86 -10.6 12.8 85 -12.7 9.2 0 0
23:00 1013 29.91 843 24.89 -10.6 12.8 85 -12.7 9.2 0 0
23:01 1013 29.91 843 24.89 -10.6 12.8 85 -12.7 9.2 0 0
23:02 1013 29.91 842 24.86 -10.6 12.9 85 -12.7 9.2 0 0
23:03 1013 29.91 842 24.86 -10.6 12.9 85 -12.6 9.2 0 0
23:04 1013 29.91 842 24.86 -10.6 12.8 85 -12.7 9.2 0 0
23:05 1013 29.91 842 24.86 -10.6 12.9 85 -12.7 9.2 0 0
23:06 1013 29.91 842 24.86 -10.7 12.8 85 -12.7 9.1 0 0
23:07 1013 29.91 842 24.86 -10.6 12.9 85 -12.7 9.1 0 0
23:08 1013 29.91 842 24.86 -10.7 12.8 85 -12.8 9 0 0
23:09 1013 29.91 842 24.86 -10.6 12.8 85 -12.8 9 0 0
23:10 1013 29.91 842 24.86 -10.7 12.7 84 -12.8 8.9 0 0
23:11 1013 29.91 843 24.89 -10.7 12.7 85 -12.8 8.9 0 0
23:12 1013 29.91 842 24.86 -10.7 12.7 85 -12.8 8.9 0 0
23:13 1013 29.91 842 24.86 -10.8 12.7 85 -12.8 8.9 0 0
23:14 1013 29.91 842 24.86 -10.8 12.6 85 -12.9 8.8 0 0
23:15 1013 29.91 842 24.86 -10.8 12.6 85 -12.9 8.8 0 0
23:16 1013 29.91 842 24.86 -10.8 12.6 85 -12.9 8.8 0 0
23:17 1013 29.91 842 24.86 -10.8 12.6 85 -12.9 8.8 0 0
23:18 1013 29.91 842 24.86 -10.9 12.5 85 -12.9 8.7 0 0
23:19 1013 29.91 842 24.86 -10.8 12.5 85 -12.9 8.8 0 0
23:20 1013 29.91 842 24.86 -10.8 12.5 85 -12.9 8.8 0 0
23:21 1013 29.91 842 24.86 -10.8 12.5 85 -12.9 8.8 0 0
23:22 1013 29.91 842 24.86 -10.9 12.5 85 -12.9 8.7 0 0
23:23 1013 29.91 842 24.86 -10.8 12.5 85 -12.9 8.8 0 0
23:24 1013 29.91 842 24.86 -10.8 12.5 85 -12.9 8.8 0 0
23:25 1013 29.91 842 24.86 -10.8 12.5 85 -12.9 8.8 0 0
23:26 1013 29.91 842 24.86 -10.8 12.5 85 -12.9 8.8 0 0
23:27 1013 29.91 842 24.86 -10.9 12.5 85 -12.9 8.8 0 0
23:28 1013 29.91 842 24.86 -10.8 12.6 85 -12.9 8.8 0 0
23:29 1013 29.91 842 24.86 -10.8 12.6 85 -12.9 8.8 0 0
23:30 1013 29.91 842 24.86 -10.8 12.6 85 -12.9 8.8 0 0
23:31 1013 29.91 842 24.86 -10.8 12.6 85 -12.9 8.8 0 0
23:32 1013 29.91 842 24.86 -10.8 12.6 85 -12.8 8.9 0 0
23:33 1013 29.91 842 24.86 -10.8 12.6 85 -12.8 8.9 0 0
23:34 1013 29.91 842 24.86 -10.8 12.6 85 -12.8 8.9 0 0
23:35 1013 29.91 842 24.86 -10.8 12.6 84 -12.9 8.7 0 0
23:36 1013 29.91 842 24.86 -10.8 12.6 85 -12.9 8.8 0 0
23:37 1013 29.91 842 24.86 -10.8 12.6 85 -12.8 8.9 0 0
23:38 1013 29.91 842 24.86 -10.8 12.6 85 -12.8 8.9 0 0
23:39 1013 29.91 842 24.86 -10.8 12.6 85 -12.9 8.8 0 0
23:40 1013 29.91 842 24.86 -10.8 12.6 85 -12.9 8.8 0 0
23:41 1013 29.91 842 24.86 -10.8 12.6 85 -12.9 8.8 0 0
23:42 1013 29.91 842 24.86 -10.8 12.6 85 -12.9 8.8 0 0
23:43 1013 29.91 842 24.86 -10.8 12.6 85 -12.9 8.8 0 0
23:44 1013 29.91 842 24.86 -10.8 12.6 85 -12.8 8.9 0 0
23:45 1013 29.91 842 24.86 -10.8 12.6 85 -12.8 8.9 0 0
23:46 1013 29.91 842 24.86 -10.8 12.6 85 -12.8 8.9 0 0
23:47 1013 29.91 842 24.86 -10.8 12.6 85 -12.9 8.9 0 0
23:48 1013 29.91 842 24.86 -10.8 12.6 85 -12.8 8.9 0 0
23:49 1013 29.91 842 24.86 -10.7 12.7 85 -12.8 9 0 0
23:50 1013 29.91 842 24.86 -10.8 12.6 85 -12.8 8.9 0 0
23:51 1013 29.91 842 24.86 -10.8 12.6 85 -12.8 8.9 0 0
23:52 1013 29.91 842 24.86 -10.8 12.6 85 -12.8 8.9 0 0
23:53 1013 29.91 842 24.86 -10.8 12.5 85 -12.8 8.9 0 0
23:54 1013 29.91 842 24.86 -10.8 12.6 85 -12.8 9 0 0
23:55 1013 29.91 842 24.86 -10.8 12.6 85 -12.8 8.9 0 0
23:56 1013 29.91 842 24.86 -10.8 12.6 85 -12.8 9 0 0
23:57 1013 29.91 842 24.86 -10.8 12.6 85 -12.8 9 0 0
23:58 1013 29.91 842 24.86 -10.8 12.6 85 -12.8 9 0 0
23:59 1013 29.91 842 24.86 -10.8 12.6 85 -12.8 9 0 0
24:00 1013 29.91 842 24.86 -10.8 12.6 85 -12.8 9 0 0